createdAt,value
2019-03-12T00:00:03.458Z,23.4
2019-03-12T00:01:03.579Z,18.4
2019-03-12T00:02:03.302Z,17.3
2019-03-12T00:03:03.668Z,22
2019-03-12T00:04:03.125Z,19.4
2019-03-12T00:05:03.790Z,13.3
2019-03-12T00:06:03.358Z,17.3
2019-03-12T00:07:03.767Z,13.3
2019-03-12T00:08:03.660Z,17.3
2019-03-12T00:09:03.161Z,12.2
2019-03-12T00:10:03.458Z,13.3
2019-03-12T00:11:03.604Z,17.3
2019-03-12T00:12:03.304Z,13.3
2019-03-12T00:13:03.800Z,12.2
2019-03-12T00:14:03.650Z,13.3
2019-03-12T00:15:03.478Z,15.8
2019-03-12T00:16:03.526Z,15.8
2019-03-12T00:17:03.579Z,11.2
2019-03-12T00:18:03.394Z,11.2
2019-03-12T00:19:03.224Z,13.3
2019-03-12T00:20:03.146Z,12.2
2019-03-12T00:21:03.423Z,11.2
2019-03-12T00:22:03.245Z,9.7
2019-03-12T00:23:03.380Z,12.2
2019-03-12T00:24:03.039Z,13.3
2019-03-12T00:25:03.492Z,14.8
2019-03-12T00:26:04.042Z,15.8
2019-03-12T00:27:03.324Z,13.3
2019-03-12T00:28:03.267Z,15.8
2019-03-12T00:29:03.289Z,17.3
2019-03-12T00:30:03.968Z,17.3
2019-03-12T00:31:03.335Z,24.5
2019-03-12T00:32:02.907Z,24.5
2019-03-12T00:33:03.157Z,13.3
2019-03-12T00:34:03.279Z,17.3
2019-03-12T00:35:02.988Z,14.8
2019-03-12T00:36:03.392Z,15.8
2019-03-12T00:37:03.448Z,17.3
2019-03-12T00:38:02.937Z,13.3
2019-03-12T00:39:03.292Z,17.3
2019-03-12T00:40:03.255Z,14.8
2019-03-12T00:41:03.026Z,15.8
2019-03-12T00:42:03.047Z,19.4
2019-03-12T00:43:03.310Z,19.4
2019-03-12T00:44:03.862Z,19.4
2019-03-12T00:45:03.283Z,17.3
2019-03-12T00:46:02.848Z,18.4
2019-03-12T00:47:03.390Z,17.3
2019-03-12T00:48:03.798Z,13.3
2019-03-12T00:49:04.047Z,17.3
2019-03-12T00:50:03.321Z,19.4
2019-03-12T00:51:04.057Z,18.4
2019-03-12T00:52:02.903Z,17.3
2019-03-12T00:53:03.818Z,17.3
2019-03-12T00:54:03.312Z,18.4
2019-03-12T00:55:03.969Z,18.4
2019-03-12T00:56:03.929Z,15.8
2019-03-12T00:57:04.002Z,17.3
2019-03-12T00:58:03.801Z,17.3
2019-03-12T00:59:03.744Z,17.3
2019-03-12T01:00:03.595Z,15.8
2019-03-12T01:01:03.611Z,17.3
2019-03-12T01:02:03.520Z,17.3
2019-03-12T01:03:03.209Z,17.3
2019-03-12T01:04:03.282Z,17.3
2019-03-12T01:05:04.053Z,17.3
2019-03-12T01:06:03.592Z,17.3
2019-03-12T01:07:03.916Z,17.3
2019-03-12T01:08:03.156Z,17.3
2019-03-12T01:09:03.313Z,12.2
2019-03-12T01:10:03.587Z,13.3
2019-03-12T01:11:03.578Z,14.8
2019-03-12T01:12:03.528Z,12.2
2019-03-12T01:13:03.672Z,14.8
2019-03-12T01:14:03.104Z,13.3
2019-03-12T01:15:03.366Z,13.3
2019-03-12T01:16:03.479Z,12.2
2019-03-12T01:17:03.264Z,13.3
2019-03-12T01:18:03.279Z,14.8
2019-03-12T01:19:03.318Z,14.8
2019-03-12T01:20:03.142Z,14.8
2019-03-12T01:21:03.224Z,14.8
2019-03-12T01:22:03.447Z,13.3
2019-03-12T01:23:03.474Z,15.8
2019-03-12T01:24:03.383Z,13.3
2019-03-12T01:25:03.174Z,12.2
2019-03-12T01:26:03.179Z,12.2
2019-03-12T01:27:03.028Z,13.3
2019-03-12T01:28:03.074Z,11.2
2019-03-12T01:29:03.182Z,12.2
2019-03-12T01:30:03.134Z,12.2
2019-03-12T01:31:03.375Z,11.2
2019-03-12T01:32:02.905Z,11.2
2019-03-12T01:33:03.175Z,12.2
2019-03-12T01:34:03.225Z,13.3
2019-03-12T01:35:03.283Z,13.3
2019-03-12T01:36:02.943Z,13.3
2019-03-12T01:37:03.175Z,11.2
2019-03-12T01:38:03.442Z,12.2
2019-03-12T01:39:02.670Z,13.3
2019-03-12T01:40:03.125Z,11.2
2019-03-12T01:41:03.253Z,12.2
2019-03-12T01:42:03.487Z,8.6
2019-03-12T01:43:03.212Z,7.2
2019-03-12T01:44:03.170Z,9.7
2019-03-12T01:45:03.277Z,9.7
2019-03-12T01:46:03.929Z,8.6
2019-03-12T01:47:04.022Z,9.7
2019-03-12T01:48:03.146Z,7.2
2019-03-12T01:49:03.312Z,7.2
2019-03-12T01:50:03.992Z,7.2
2019-03-12T01:51:03.260Z,6.1
2019-03-12T01:52:03.468Z,6.1
2019-03-12T01:53:03.696Z,7.2
2019-03-12T01:54:03.807Z,11.2
2019-03-12T01:55:03.841Z,7.2
2019-03-12T01:56:03.698Z,7.2
2019-03-12T01:57:03.543Z,9.7
2019-03-12T01:58:03.688Z,7.2
2019-03-12T01:59:03.782Z,9.7
2019-03-12T02:00:03.993Z,11.2
2019-03-12T02:01:03.370Z,12.2
2019-03-12T02:02:03.991Z,12.2
2019-03-12T02:03:03.379Z,9.7
2019-03-12T02:04:03.755Z,11.2
2019-03-12T02:05:03.738Z,11.2
2019-03-12T02:06:03.728Z,11.2
2019-03-12T02:07:03.300Z,8.6
2019-03-12T02:08:03.467Z,12.2
2019-03-12T02:09:03.363Z,13.3
2019-03-12T02:10:03.404Z,13.3
2019-03-12T02:11:03.419Z,12.2
2019-03-12T02:12:03.564Z,13.3
2019-03-12T02:13:03.538Z,11.2
2019-03-12T02:14:03.246Z,13.3
2019-03-12T02:15:03.724Z,13.3
2019-03-12T02:16:03.284Z,11.2
2019-03-12T02:17:03.244Z,14.8
2019-03-12T02:18:03.523Z,13.3
2019-03-12T02:19:03.303Z,12.2
2019-03-12T02:20:02.990Z,12.2
2019-03-12T02:21:03.010Z,14.8
2019-03-12T02:22:03.195Z,13.3
2019-03-12T02:23:03.090Z,13.3
2019-03-12T02:24:03.324Z,12.2
2019-03-12T02:25:03.274Z,11.2
2019-03-12T02:26:03.065Z,15.8
2019-03-12T02:27:03.880Z,17.3
2019-03-12T02:28:03.124Z,17.3
2019-03-12T02:29:02.283Z,15.8
2019-03-12T02:30:03.204Z,13.3
2019-03-12T02:31:02.905Z,13.3
2019-03-12T02:32:03.976Z,14.8
2019-03-12T02:33:03.031Z,12.2
2019-03-12T02:34:03.052Z,14.8
2019-03-12T02:35:03.121Z,14.8
2019-03-12T02:36:03.227Z,14.8
2019-03-12T02:37:03.139Z,13.3
2019-03-12T02:38:03.705Z,13.3
2019-03-12T02:39:03.887Z,13.3
2019-03-12T02:40:03.891Z,13.3
2019-03-12T02:41:02.672Z,14.8
2019-03-12T02:42:03.441Z,14.8
2019-03-12T02:43:03.701Z,14.8
2019-03-12T02:44:03.410Z,14.8
2019-03-12T02:45:03.552Z,14.8
2019-03-12T02:46:03.337Z,14.8
2019-03-12T02:47:03.761Z,15.8
2019-03-12T02:48:04.000Z,15.8
2019-03-12T02:49:04.067Z,17.3
2019-03-12T02:50:03.697Z,14.8
2019-03-12T02:51:03.027Z,17.3
2019-03-12T02:52:03.408Z,15.8
2019-03-12T02:53:03.257Z,19.4
2019-03-12T02:54:03.462Z,17.3
2019-03-12T02:55:03.709Z,18.4
2019-03-12T02:56:03.470Z,18.4
2019-03-12T02:57:03.482Z,18.4
2019-03-12T02:58:03.524Z,18.4
2019-03-12T02:59:03.503Z,17.3
2019-03-12T03:00:03.423Z,19.4
2019-03-12T03:01:03.340Z,14.8
2019-03-12T03:02:03.009Z,14.8
2019-03-12T03:03:03.265Z,17.3
2019-03-12T03:04:03.213Z,17.3
2019-03-12T03:05:03.761Z,15.8
2019-03-12T03:06:02.986Z,13.3
2019-03-12T03:07:02.971Z,13.3
2019-03-12T03:08:03.655Z,15.8
2019-03-12T03:09:03.822Z,14.8
2019-03-12T03:10:03.269Z,15.8
2019-03-12T03:11:02.952Z,15.8
2019-03-12T03:12:03.053Z,14.8
2019-03-12T03:13:03.035Z,13.3
2019-03-12T03:14:03.836Z,12.2
2019-03-12T03:15:03.214Z,11.2
2019-03-12T03:16:03.974Z,9.7
2019-03-12T03:17:03.133Z,13.3
2019-03-12T03:18:03.971Z,11.2
2019-03-12T03:19:03.810Z,14.8
2019-03-12T03:20:03.731Z,17.3
2019-03-12T03:21:04.125Z,14.8
2019-03-12T03:22:03.975Z,13.3
2019-03-12T03:23:03.473Z,14.8
2019-03-12T03:24:03.871Z,15.8
2019-03-12T03:25:03.773Z,19.4
2019-03-12T03:26:04.198Z,14.8
2019-03-12T03:27:03.238Z,13.3
2019-03-12T03:28:03.939Z,13.3
2019-03-12T03:29:03.601Z,17.3
2019-03-12T03:30:03.443Z,17.3
2019-03-12T03:31:04.192Z,17.3
2019-03-12T03:32:04.035Z,17.3
2019-03-12T03:33:03.711Z,13.3
2019-03-12T03:34:03.540Z,14.8
2019-03-12T03:35:03.762Z,15.8
2019-03-12T03:36:03.457Z,14.8
2019-03-12T03:37:03.246Z,18.4
2019-03-12T03:38:03.240Z,15.8
2019-03-12T03:39:03.539Z,13.3
2019-03-12T03:40:03.346Z,12.2
2019-03-12T03:41:03.625Z,14.8
2019-03-12T03:42:03.138Z,12.2
2019-03-12T03:43:03.099Z,12.2
2019-03-12T03:44:03.258Z,12.2
2019-03-12T03:45:03.356Z,13.3
2019-03-12T03:46:03.498Z,14.8
2019-03-12T03:47:02.937Z,14.8
2019-03-12T03:48:03.162Z,14.8
2019-03-12T03:49:03.034Z,12.2
2019-03-12T03:50:02.846Z,11.2
2019-03-12T03:51:03.036Z,9.7
2019-03-12T03:52:03.475Z,9.7
2019-03-12T03:53:04.099Z,9.7
2019-03-12T03:54:03.127Z,8.6
2019-03-12T03:55:03.076Z,8.6
2019-03-12T03:56:03.908Z,8.6
2019-03-12T03:57:03.703Z,13.3
2019-03-12T03:58:03.644Z,12.2
2019-03-12T03:59:04.045Z,12.2
2019-03-12T04:00:03.563Z,13.3
2019-03-12T04:01:04.031Z,12.2
2019-03-12T04:02:03.737Z,11.2
2019-03-12T04:03:03.116Z,13.3
2019-03-12T04:04:03.716Z,13.3
2019-03-12T04:05:03.707Z,11.2
2019-03-12T04:06:03.899Z,13.3
2019-03-12T04:07:03.791Z,13.3
2019-03-12T04:08:03.575Z,13.3
2019-03-12T04:09:03.312Z,14.8
2019-03-12T04:10:03.459Z,11.2
2019-03-12T04:11:03.291Z,11.2
2019-03-12T04:12:03.570Z,13.3
2019-03-12T04:13:03.268Z,11.2
2019-03-12T04:14:03.156Z,12.2
2019-03-12T04:15:03.580Z,13.3
2019-03-12T04:16:03.426Z,13.3
2019-03-12T04:17:03.024Z,11.2
2019-03-12T04:18:03.307Z,12.2
2019-03-12T04:19:03.533Z,12.2
2019-03-12T04:20:03.715Z,13.3
2019-03-12T04:21:03.231Z,12.2
2019-03-12T04:22:03.208Z,11.2
2019-03-12T04:23:03.437Z,11.2
2019-03-12T04:24:03.157Z,11.2
2019-03-12T04:25:02.986Z,11.2
2019-03-12T04:26:03.331Z,11.2
2019-03-12T04:27:03.753Z,12.2
2019-03-12T04:28:02.978Z,9.7
2019-03-12T04:29:03.009Z,12.2
2019-03-12T04:30:03.452Z,9.7
2019-03-12T04:31:03.450Z,9.7
2019-03-12T04:32:03.171Z,7.2
2019-03-12T04:33:03.102Z,8.6
2019-03-12T04:34:03.312Z,7.2
2019-03-12T04:35:03.984Z,9.7
2019-03-12T04:36:03.138Z,7.2
2019-03-12T04:37:02.935Z,9.7
2019-03-12T04:38:02.680Z,8.6
2019-03-12T04:39:03.503Z,7.2
2019-03-12T04:40:03.986Z,7.2
2019-03-12T04:41:03.378Z,7.2
2019-03-12T04:42:03.493Z,6.1
2019-03-12T04:43:03.997Z,7.2
2019-03-12T04:44:03.681Z,6.1
2019-03-12T04:45:03.925Z,8.6
2019-03-12T04:46:03.612Z,6.1
2019-03-12T04:47:03.847Z,6.1
2019-03-12T04:48:03.366Z,6.1
2019-03-12T04:49:03.651Z,7.2
2019-03-12T04:50:03.710Z,7.2
2019-03-12T04:51:03.674Z,7.2
2019-03-12T04:52:03.544Z,9.7
2019-03-12T04:53:03.577Z,8.6
2019-03-12T04:54:03.198Z,8.6
2019-03-12T04:55:03.686Z,8.6
2019-03-12T04:56:03.530Z,8.6
2019-03-12T04:57:03.290Z,11.2
2019-03-12T04:58:03.522Z,12.2
2019-03-12T04:59:03.497Z,12.2
2019-03-12T05:00:03.842Z,12.2
2019-03-12T05:01:03.335Z,9.7
2019-03-12T05:02:03.474Z,9.7
2019-03-12T05:03:03.120Z,9.7
2019-03-12T05:04:03.196Z,9.7
2019-03-12T05:05:03.386Z,9.7
2019-03-12T05:06:03.141Z,9.7
2019-03-12T05:07:03.401Z,9.7
2019-03-12T05:08:03.158Z,9.7
2019-03-12T05:09:03.330Z,11.2
2019-03-12T05:10:03.162Z,11.2
2019-03-12T05:11:03.267Z,11.2
2019-03-12T05:12:03.209Z,11.2
2019-03-12T05:13:02.962Z,9.7
2019-03-12T05:14:03.098Z,9.7
2019-03-12T05:15:03.014Z,11.2
2019-03-12T05:16:03.032Z,15.8
2019-03-12T05:17:03.058Z,11.2
2019-03-12T05:18:03.838Z,9.7
2019-03-12T05:19:02.763Z,12.2
2019-03-12T05:20:03.966Z,12.2
2019-03-12T05:21:03.646Z,12.2
2019-03-12T05:22:02.808Z,13.3
2019-03-12T05:23:03.856Z,14.8
2019-03-12T05:24:03.771Z,15.8
2019-03-12T05:25:03.654Z,13.3
2019-03-12T05:26:03.490Z,13.3
2019-03-12T05:27:03.831Z,12.2
2019-03-12T05:28:03.831Z,12.2
2019-03-12T05:29:03.666Z,11.2
2019-03-12T05:30:03.505Z,12.2
2019-03-12T05:31:03.581Z,13.3
2019-03-12T05:32:03.522Z,12.2
2019-03-12T05:33:03.332Z,11.2
2019-03-12T05:34:03.406Z,9.7
2019-03-12T05:35:03.630Z,12.2
2019-03-12T05:36:03.431Z,12.2
2019-03-12T05:37:03.489Z,12.2
2019-03-12T05:38:03.440Z,12.2
2019-03-12T05:39:03.630Z,11.2
2019-03-12T05:40:03.519Z,13.3
2019-03-12T05:41:03.104Z,11.2
2019-03-12T05:42:03.312Z,11.2
2019-03-12T05:43:03.236Z,14.8
2019-03-12T05:44:03.221Z,14.8
2019-03-12T05:45:03.604Z,14.8
2019-03-12T05:46:03.239Z,13.3
2019-03-12T05:47:02.803Z,12.2
2019-03-12T05:48:02.846Z,13.3
2019-03-12T05:49:03.070Z,11.2
2019-03-12T05:50:02.929Z,12.2
2019-03-12T05:51:03.331Z,12.2
2019-03-12T05:52:03.171Z,11.2
2019-03-12T05:53:03.033Z,15.8
2019-03-12T05:54:02.859Z,13.3
2019-03-12T05:55:03.126Z,13.3
2019-03-12T05:56:03.337Z,12.2
2019-03-12T05:57:03.157Z,14.8
2019-03-12T05:58:03.827Z,14.8
2019-03-12T05:59:02.983Z,15.8
2019-03-12T06:00:03.790Z,14.8
2019-03-12T06:01:03.649Z,15.8
2019-03-12T06:02:04.054Z,13.3
2019-03-12T06:03:02.966Z,12.2
2019-03-12T06:04:03.600Z,14.8
2019-03-12T06:05:03.611Z,13.3
2019-03-12T06:06:03.561Z,17.3
2019-03-12T06:07:04.019Z,17.3
2019-03-12T06:08:02.856Z,14.8
2019-03-12T06:09:02.807Z,14.8
2019-03-12T06:10:03.930Z,12.2
2019-03-12T06:11:03.693Z,11.2
2019-03-12T06:12:03.611Z,13.3
2019-03-12T06:13:03.708Z,12.2
2019-03-12T06:14:03.662Z,12.2
2019-03-12T06:15:03.558Z,13.3
2019-03-12T06:16:03.567Z,13.3
2019-03-12T06:17:03.214Z,12.2
2019-03-12T06:18:03.433Z,14.8
2019-03-12T06:19:03.231Z,12.2
2019-03-12T06:20:03.219Z,17.3
2019-03-12T06:21:03.433Z,19.4
2019-03-12T06:22:03.308Z,13.3
2019-03-12T06:23:03.098Z,12.2
2019-03-12T06:24:03.518Z,14.8
2019-03-12T06:25:04.014Z,12.2
2019-03-12T06:26:02.998Z,13.3
2019-03-12T06:27:03.366Z,9.7
2019-03-12T06:28:03.078Z,11.2
2019-03-12T06:29:03.103Z,12.2
2019-03-12T06:30:03.177Z,13.3
2019-03-12T06:31:03.182Z,11.2
2019-03-12T06:32:03.529Z,11.2
2019-03-12T06:33:03.091Z,9.7
2019-03-12T06:34:03.052Z,12.2
2019-03-12T06:35:02.811Z,9.7
2019-03-12T06:36:03.026Z,12.2
2019-03-12T06:37:03.101Z,13.3
2019-03-12T06:38:02.989Z,9.7
2019-03-12T06:39:03.738Z,9.7
2019-03-12T06:40:02.958Z,11.2
2019-03-12T06:41:02.992Z,9.7
2019-03-12T06:42:02.997Z,12.2
2019-03-12T06:43:03.743Z,9.7
2019-03-12T06:44:03.126Z,12.2
2019-03-12T06:45:02.779Z,15.8
2019-03-12T06:46:03.838Z,15.8
2019-03-12T06:47:03.781Z,13.3
2019-03-12T06:48:03.961Z,11.2
2019-03-12T06:49:03.448Z,17.3
2019-03-12T06:50:03.911Z,14.8
2019-03-12T06:51:03.801Z,13.3
2019-03-12T06:52:02.955Z,11.2
2019-03-12T06:53:03.341Z,12.2
2019-03-12T06:54:03.783Z,12.2
2019-03-12T06:55:03.941Z,11.2
2019-03-12T06:56:03.234Z,9.7
2019-03-12T06:57:03.264Z,13.3
2019-03-12T06:58:03.611Z,14.8
2019-03-12T06:59:03.422Z,11.2
2019-03-12T07:00:03.487Z,15.8
2019-03-12T07:01:03.392Z,15.8
2019-03-12T07:02:03.138Z,15.8
2019-03-12T07:03:03.652Z,15.8
2019-03-12T07:04:03.390Z,15.8
2019-03-12T07:05:03.423Z,15.8
2019-03-12T07:06:03.797Z,15.8
2019-03-12T07:07:13.101Z,15.8
2019-03-12T07:08:06.812Z,15.8
2019-03-12T07:09:03.332Z,14.8
2019-03-12T07:10:03.214Z,13.3
2019-03-12T07:11:03.060Z,13.3
2019-03-12T07:12:03.134Z,17.3
2019-03-12T07:13:03.864Z,12.2
2019-03-12T07:14:02.994Z,9.7
2019-03-12T07:15:03.498Z,15.8
2019-03-12T07:16:02.859Z,12.2
2019-03-12T07:17:02.986Z,9.7
2019-03-12T07:18:03.075Z,7.2
2019-03-12T07:19:04.103Z,11.2
2019-03-12T07:20:03.927Z,11.2
2019-03-12T07:21:03.811Z,11.2
2019-03-12T07:22:03.152Z,12.2
2019-03-12T07:23:03.770Z,9.7
2019-03-12T07:24:03.458Z,7.2
2019-03-12T07:25:03.684Z,9.7
2019-03-12T07:26:03.865Z,8.6
2019-03-12T07:27:03.770Z,12.2
2019-03-12T07:28:03.689Z,14.8
2019-03-12T07:29:03.520Z,14.8
2019-03-12T07:30:03.608Z,12.2
2019-03-12T07:31:03.870Z,15.8
2019-03-12T07:32:03.429Z,13.3
2019-03-12T07:33:03.577Z,15.8
2019-03-12T07:34:03.566Z,15.8
2019-03-12T07:35:03.467Z,13.3
2019-03-12T07:36:03.555Z,11.2
2019-03-12T07:37:03.164Z,9.7
2019-03-12T07:38:03.049Z,11.2
2019-03-12T07:39:03.435Z,11.2
2019-03-12T07:40:03.030Z,9.7
2019-03-12T07:41:02.921Z,13.3
2019-03-12T07:42:03.492Z,13.3
2019-03-12T07:43:02.948Z,15.8
2019-03-12T07:44:03.301Z,17.3
2019-03-12T07:45:03.224Z,14.8
2019-03-12T07:46:03.585Z,14.8
2019-03-12T07:47:03.407Z,12.2
2019-03-12T07:48:02.997Z,13.3
2019-03-12T07:49:02.886Z,13.3
2019-03-12T07:50:03.376Z,17.3
2019-03-12T07:51:03.146Z,18.4
2019-03-12T07:52:03.026Z,14.8
2019-03-12T07:53:03.394Z,13.3
2019-03-12T07:54:02.659Z,18.4
2019-03-12T07:55:04.040Z,18.4
2019-03-12T07:56:02.803Z,15.8
2019-03-12T07:57:03.279Z,18.4
2019-03-12T07:58:03.017Z,18.4
2019-03-12T07:59:03.295Z,14.8
2019-03-12T08:00:03.297Z,15.8
2019-03-12T08:01:03.220Z,17.3
2019-03-12T08:02:03.102Z,15.8
2019-03-12T08:03:03.759Z,18.4
2019-03-12T08:04:02.917Z,15.8
2019-03-12T08:05:03.882Z,17.3
2019-03-12T08:06:03.888Z,17.3
2019-03-12T08:07:03.827Z,18.4
2019-03-12T08:08:03.338Z,17.3
2019-03-12T08:09:03.659Z,19.4
2019-03-12T08:10:04.137Z,18.4
2019-03-12T08:11:03.584Z,14.8
2019-03-12T08:12:03.821Z,20.9
2019-03-12T08:13:03.758Z,15.8
2019-03-12T08:14:03.492Z,13.3
2019-03-12T08:15:03.403Z,14.8
2019-03-12T08:16:03.082Z,13.3
2019-03-12T08:17:03.690Z,17.3
2019-03-12T08:18:03.616Z,23.4
2019-03-12T08:19:03.017Z,18.4
2019-03-12T08:20:03.572Z,15.8
2019-03-12T08:21:03.715Z,13.3
2019-03-12T08:22:03.593Z,15.8
2019-03-12T08:23:03.357Z,18.4
2019-03-12T08:24:03.402Z,17.3
2019-03-12T08:25:03.483Z,17.3
2019-03-12T08:26:03.407Z,18.4
2019-03-12T08:27:03.407Z,15.8
2019-03-12T08:28:03.307Z,15.8
2019-03-12T08:29:03.220Z,15.8
2019-03-12T08:30:03.403Z,17.3
2019-03-12T08:31:03.168Z,15.8
2019-03-12T08:32:03.313Z,15.8
2019-03-12T08:33:03.005Z,15.8
2019-03-12T08:34:03.246Z,17.3
2019-03-12T08:35:03.061Z,14.8
2019-03-12T08:36:03.128Z,15.8
2019-03-12T08:37:03.088Z,12.2
2019-03-12T08:38:03.042Z,13.3
2019-03-12T08:39:03.998Z,13.3
2019-03-12T08:40:03.244Z,12.2
2019-03-12T08:41:03.185Z,13.3
2019-03-12T08:42:03.855Z,12.2
2019-03-12T08:43:03.905Z,12.2
2019-03-12T08:44:03.852Z,17.3
2019-03-12T08:45:03.823Z,11.2
2019-03-12T08:46:03.391Z,13.3
2019-03-12T08:47:03.385Z,17.3
2019-03-12T08:48:03.738Z,17.3
2019-03-12T08:49:04.447Z,11.2
2019-03-12T08:50:03.599Z,11.2
2019-03-12T08:51:05.941Z,11.2
2019-03-12T08:52:03.452Z,9.7
2019-03-12T08:53:03.775Z,18.4
2019-03-12T08:54:02.925Z,15.8
2019-03-12T08:55:04.779Z,17.3
2019-03-12T08:56:03.270Z,15.8
2019-03-12T08:57:03.727Z,13.3
2019-03-12T08:58:03.738Z,13.3
2019-03-12T08:59:03.679Z,17.3
2019-03-12T09:00:03.748Z,12.2
2019-03-12T09:01:03.634Z,13.3
2019-03-12T09:02:03.872Z,13.3
2019-03-12T09:03:03.588Z,13.3
2019-03-12T09:04:03.249Z,13.3
2019-03-12T09:05:03.819Z,13.3
2019-03-12T09:06:03.467Z,13.3
2019-03-12T09:07:05.704Z,13.3
2019-03-12T09:08:03.548Z,13.3
2019-03-12T09:09:03.405Z,15.8
2019-03-12T09:10:03.648Z,19.4
2019-03-12T09:11:03.381Z,17.3
2019-03-12T09:12:03.436Z,15.8
2019-03-12T09:13:03.502Z,15.8
2019-03-12T09:14:03.609Z,17.3
2019-03-12T09:15:03.196Z,17.3
2019-03-12T09:16:03.701Z,19.4
2019-03-12T09:17:03.246Z,14.8
2019-03-12T09:18:03.805Z,15.8
2019-03-12T09:19:03.378Z,13.3
2019-03-12T09:20:03.199Z,13.3
2019-03-12T09:21:03.344Z,15.8
2019-03-12T09:22:03.502Z,17.3
2019-03-12T09:23:03.249Z,14.8
2019-03-12T09:24:03.238Z,12.2
2019-03-12T09:25:03.285Z,15.8
2019-03-12T09:26:03.000Z,14.8
2019-03-12T09:27:03.292Z,17.3
2019-03-12T09:28:02.930Z,15.8
2019-03-12T09:29:03.315Z,13.3
2019-03-12T09:30:03.661Z,13.3
2019-03-12T09:31:03.039Z,14.8
2019-03-12T09:32:03.898Z,9.7
2019-03-12T09:33:03.040Z,9.7
2019-03-12T09:34:03.643Z,11.2
2019-03-12T09:35:03.525Z,12.2
2019-03-12T09:36:03.374Z,15.8
2019-03-12T09:37:03.353Z,15.8
2019-03-12T09:38:11.138Z,13.3
2019-03-12T09:39:03.942Z,9.7
2019-03-12T09:40:03.155Z,18.4
2019-03-12T09:41:03.785Z,19.4
2019-03-12T09:42:03.095Z,15.8
2019-03-12T09:43:03.124Z,17.3
2019-03-12T09:44:02.952Z,15.8
2019-03-12T09:45:04.040Z,12.2
2019-03-12T09:46:03.791Z,12.2
2019-03-12T09:47:02.948Z,14.8
2019-03-12T09:48:03.688Z,13.3
2019-03-12T09:49:03.708Z,9.7
2019-03-12T09:50:03.491Z,17.3
2019-03-12T09:51:03.902Z,20.9
2019-03-12T09:52:03.585Z,17.3
2019-03-12T09:53:03.813Z,15.8
2019-03-12T09:54:03.575Z,14.8
2019-03-12T09:55:05.406Z,13.3
2019-03-12T09:56:03.788Z,17.3
2019-03-12T09:57:03.653Z,13.3
2019-03-12T09:58:03.648Z,15.8
2019-03-12T09:59:03.511Z,17.3
2019-03-12T10:00:17.174Z,14.8
2019-03-12T10:01:03.861Z,8.6
2019-03-12T10:02:03.871Z,13.3
2019-03-12T10:03:03.700Z,15.8
2019-03-12T10:04:03.900Z,12.2
2019-03-12T10:05:03.567Z,15.8
2019-03-12T10:06:03.719Z,19.4
2019-03-12T10:07:03.967Z,15.8
2019-03-12T10:08:03.868Z,17.3
2019-03-12T10:09:03.784Z,12.2
2019-03-12T10:10:03.312Z,11.2
2019-03-12T10:11:03.651Z,11.2
2019-03-12T10:12:02.993Z,15.8
2019-03-12T10:13:03.658Z,11.2
2019-03-12T10:14:03.683Z,9.7
2019-03-12T10:15:03.431Z,14.8
2019-03-12T10:16:03.548Z,12.2
2019-03-12T10:17:03.630Z,13.3
2019-03-12T10:18:03.374Z,11.2
2019-03-12T10:19:03.364Z,14.8
2019-03-12T10:20:03.186Z,17.3
2019-03-12T10:21:03.381Z,14.8
2019-03-12T10:22:03.342Z,8.6
2019-03-12T10:23:02.761Z,5
2019-03-12T10:24:03.442Z,11.2
2019-03-12T10:25:03.447Z,14.8
2019-03-12T10:26:03.203Z,15.8
2019-03-12T10:27:03.244Z,18.4
2019-03-12T10:28:03.045Z,9.7
2019-03-12T10:29:03.019Z,17.3
2019-03-12T10:30:03.036Z,11.2
2019-03-12T10:31:02.975Z,8.6
2019-03-12T10:32:02.929Z,13.3
2019-03-12T10:33:03.056Z,15.8
2019-03-12T10:34:03.079Z,15.8
2019-03-12T10:35:03.225Z,14.8
2019-03-12T10:36:04.070Z,19.4
2019-03-12T10:37:16.990Z,14.8
2019-03-12T10:38:02.914Z,11.2
2019-03-12T10:39:03.623Z,12.2
2019-03-12T10:40:02.854Z,12.2
2019-03-12T10:41:03.718Z,11.2
2019-03-12T10:42:03.932Z,8.6
2019-03-12T10:43:02.119Z,11.2
2019-03-12T10:44:03.291Z,15.8
2019-03-12T10:45:04.080Z,14.8
2019-03-12T10:46:03.780Z,15.8
2019-03-12T10:47:03.750Z,19.4
2019-03-12T10:48:03.836Z,19.4
2019-03-12T10:49:03.979Z,14.8
2019-03-12T10:50:03.839Z,11.2
2019-03-12T10:51:02.809Z,11.2
2019-03-12T10:52:03.664Z,13.3
2019-03-12T10:53:03.499Z,15.8
2019-03-12T10:54:03.576Z,18.4
2019-03-12T10:55:14.476Z,15.8
2019-03-12T10:56:03.476Z,15.8
2019-03-12T10:57:03.705Z,14.8
2019-03-12T10:58:03.497Z,14.8
2019-03-12T10:59:03.572Z,13.3
2019-03-12T11:00:04.018Z,12.2
2019-03-12T11:01:03.406Z,14.8
2019-03-12T11:02:03.840Z,14.8
2019-03-12T11:03:03.449Z,14.8
2019-03-12T11:04:03.309Z,14.8
2019-03-12T11:05:03.945Z,14.8
2019-03-12T11:06:03.790Z,14.8
2019-03-12T11:07:17.324Z,14.8
2019-03-12T11:08:07.425Z,14.8
2019-03-12T11:09:03.464Z,12.2
2019-03-12T11:10:03.360Z,13.3
2019-03-12T11:11:03.217Z,9.7
2019-03-12T11:12:03.877Z,13.3
2019-03-12T11:13:03.833Z,15.8
2019-03-12T11:14:03.169Z,14.8
2019-03-12T11:15:03.630Z,11.2
2019-03-12T11:16:03.393Z,12.2
2019-03-12T11:17:03.618Z,15.8
2019-03-12T11:18:03.414Z,12.2
2019-03-12T11:19:03.340Z,7.2
2019-03-12T11:20:03.335Z,9.7
2019-03-12T11:21:03.247Z,14.8
2019-03-12T11:22:03.504Z,14.8
2019-03-12T11:23:03.307Z,14.8
2019-03-12T11:24:03.239Z,15.8
2019-03-12T11:25:03.388Z,11.2
2019-03-12T11:26:03.552Z,11.2
2019-03-12T11:27:02.898Z,11.2
2019-03-12T11:28:02.969Z,8.6
2019-03-12T11:29:02.815Z,11.2
2019-03-12T11:30:03.488Z,7.2
2019-03-12T11:31:04.094Z,9.7
2019-03-12T11:32:03.743Z,6.1
2019-03-12T11:33:03.539Z,7.2
2019-03-12T11:34:03.797Z,6.1
2019-03-12T11:35:03.601Z,9.7
2019-03-12T11:36:03.697Z,11.2
2019-03-12T11:37:03.757Z,12.2
2019-03-12T11:38:03.677Z,11.2
2019-03-12T11:39:03.890Z,13.3
2019-03-12T11:40:04.272Z,6.1
2019-03-12T11:41:04.066Z,6.1
2019-03-12T11:42:03.947Z,5
2019-03-12T11:43:03.763Z,11.2
2019-03-12T11:44:03.429Z,12.2
2019-03-12T11:45:38.151Z,9.7
2019-03-12T11:46:03.795Z,11.2
2019-03-12T11:47:03.980Z,7.2
2019-03-12T11:48:04.003Z,3.6
2019-03-12T11:49:03.408Z,8.6
2019-03-12T11:50:03.652Z,11.2
2019-03-12T11:51:03.713Z,11.2
2019-03-12T11:52:03.431Z,8.6
2019-03-12T11:53:04.448Z,9.7
2019-03-12T11:54:04.314Z,11.2
2019-03-12T11:55:03.631Z,6.1
2019-03-12T11:56:03.984Z,8.6
2019-03-12T11:57:03.304Z,11.2
2019-03-12T11:58:03.581Z,11.2
2019-03-12T11:59:02.958Z,7.2
2019-03-12T12:00:03.743Z,9.7
2019-03-12T12:01:04.456Z,8.6
2019-03-12T12:02:03.136Z,11.2
2019-03-12T12:03:03.068Z,11.2
2019-03-12T12:04:03.516Z,6.1
2019-03-12T12:05:03.113Z,8.6
2019-03-12T12:06:03.457Z,9.7
2019-03-12T12:07:03.089Z,7.2
2019-03-12T12:08:03.622Z,11.2
2019-03-12T12:09:04.159Z,7.2
2019-03-12T12:10:03.279Z,8.6
2019-03-12T12:11:03.186Z,6.1
2019-03-12T12:12:02.959Z,8.6
2019-03-12T12:13:04.045Z,6.1
2019-03-12T12:14:02.943Z,12.2
2019-03-12T12:15:03.813Z,9.7
2019-03-12T12:16:04.073Z,9.7
2019-03-12T12:17:03.650Z,7.2
2019-03-12T12:18:03.734Z,9.7
2019-03-12T12:19:02.966Z,13.3
2019-03-12T12:20:03.586Z,13.3
2019-03-12T12:21:03.754Z,11.2
2019-03-12T12:22:03.688Z,11.2
2019-03-12T12:23:03.547Z,8.6
2019-03-12T12:24:03.472Z,8.6
2019-03-12T12:25:03.951Z,13.3
2019-03-12T12:26:03.535Z,12.2
2019-03-12T12:27:03.413Z,7.2
2019-03-12T12:28:03.784Z,7.2
2019-03-12T12:29:03.771Z,8.6
2019-03-12T12:30:03.713Z,11.2
2019-03-12T12:31:03.163Z,11.2
2019-03-12T12:32:03.800Z,9.7
2019-03-12T12:33:03.565Z,5
2019-03-12T12:34:03.576Z,6.1
2019-03-12T12:35:03.618Z,6.1
2019-03-12T12:36:03.586Z,5
2019-03-12T12:37:04.102Z,12.2
2019-03-12T12:38:03.256Z,11.2
2019-03-12T12:39:03.378Z,9.7
2019-03-12T12:40:03.071Z,12.2
2019-03-12T12:41:03.267Z,9.7
2019-03-12T12:42:03.271Z,8.6
2019-03-12T12:43:03.629Z,9.7
2019-03-12T12:44:02.959Z,15.8
2019-03-12T12:45:03.556Z,12.2
2019-03-12T12:46:03.169Z,7.2
2019-03-12T12:47:02.973Z,7.2
2019-03-12T12:48:03.047Z,7.2
2019-03-12T12:49:03.295Z,12.2
2019-03-12T12:50:02.805Z,8.6
2019-03-12T12:51:04.361Z,9.7
2019-03-12T12:52:03.487Z,9.7
2019-03-12T12:53:02.847Z,11.2
2019-03-12T12:54:03.091Z,9.7
2019-03-12T12:55:03.159Z,13.3
2019-03-12T12:56:03.940Z,11.2
2019-03-12T12:57:02.862Z,11.2
2019-03-12T12:58:03.129Z,8.6
2019-03-12T12:59:03.195Z,7.2
2019-03-12T13:00:03.743Z,7.2
2019-03-12T13:01:03.807Z,13.3
2019-03-12T13:02:02.974Z,13.3
2019-03-12T13:03:03.127Z,13.3
2019-03-12T13:04:03.104Z,13.3
2019-03-12T13:05:03.264Z,13.3
2019-03-12T13:06:03.201Z,13.3
2019-03-12T13:07:03.207Z,13.3
2019-03-12T13:08:02.979Z,13.3
2019-03-12T13:09:02.966Z,9.7
2019-03-12T13:10:03.312Z,6.1
2019-03-12T13:11:03.700Z,8.6
2019-03-12T13:12:03.616Z,14.8
2019-03-12T13:13:03.692Z,9.7
2019-03-12T13:14:03.897Z,14.8
2019-03-12T13:15:03.566Z,12.2
2019-03-12T13:16:03.185Z,8.6
2019-03-12T13:17:03.728Z,8.6
2019-03-12T13:18:03.070Z,9.7
2019-03-12T13:19:02.603Z,9.7
2019-03-12T13:20:02.956Z,9.7
2019-03-12T13:21:03.056Z,13.3
2019-03-12T13:22:03.763Z,12.2
2019-03-12T13:23:03.940Z,9.7
2019-03-12T13:24:03.754Z,9.7